sensor_id;sensor_type;location;lat;lon;timestamp;P1;durP1;ratioP1;P2;durP2;ratioP2
20511;SDS011;10414;52.074;5.126;2023-09-12T00:01:21;55.88;;;30.45;;
20511;SDS011;10414;52.074;5.126;2023-09-12T00:03:48;57.15;;;30.05;;
20511;SDS011;10414;52.074;5.126;2023-09-12T00:06:15;53.55;;;30.63;;
20511;SDS011;10414;52.074;5.126;2023-09-12T00:08:42;52.38;;;29.85;;
20511;SDS011;10414;52.074;5.126;2023-09-12T00:11:09;55.95;;;30.67;;
20511;SDS011;10414;52.074;5.126;2023-09-12T00:13:38;58.83;;;31.85;;
20511;SDS011;10414;52.074;5.126;2023-09-12T00:16:06;61.28;;;33.05;;
20511;SDS011;10414;52.074;5.126;2023-09-12T00:18:34;59.67;;;32.38;;
20511;SDS011;10414;52.074;5.126;2023-09-12T00:21:01;62.78;;;31.27;;
20511;SDS011;10414;52.074;5.126;2023-09-12T00:23:29;64.10;;;33.53;;
20511;SDS011;10414;52.074;5.126;2023-09-12T00:25:56;56.30;;;30.92;;
20511;SDS011;10414;52.074;5.126;2023-09-12T00:28:23;60.78;;;31.63;;
20511;SDS011;10414;52.074;5.126;2023-09-12T00:30:52;57.38;;;30.85;;
20511;SDS011;10414;52.074;5.126;2023-09-12T00:33:19;58.70;;;31.90;;
20511;SDS011;10414;52.074;5.126;2023-09-12T00:35:46;63.85;;;32.65;;
20511;SDS011;10414;52.074;5.126;2023-09-12T00:38:13;59.95;;;32.03;;
20511;SDS011;10414;52.074;5.126;2023-09-12T00:40:40;60.70;;;31.05;;
20511;SDS011;10414;52.074;5.126;2023-09-12T00:43:07;62.75;;;32.45;;
20511;SDS011;10414;52.074;5.126;2023-09-12T00:45:35;65.03;;;33.25;;
20511;SDS011;10414;52.074;5.126;2023-09-12T00:48:04;67.13;;;34.97;;
20511;SDS011;10414;52.074;5.126;2023-09-12T00:50:32;71.18;;;36.35;;
20511;SDS011;10414;52.074;5.126;2023-09-12T00:53:00;62.63;;;31.80;;
20511;SDS011;10414;52.074;5.126;2023-09-12T00:55:29;66.55;;;33.70;;
20511;SDS011;10414;52.074;5.126;2023-09-12T00:57:58;65.22;;;32.28;;
20511;SDS011;10414;52.074;5.126;2023-09-12T01:00:26;65.95;;;32.55;;
20511;SDS011;10414;52.074;5.126;2023-09-12T01:02:53;67.05;;;33.22;;
20511;SDS011;10414;52.074;5.126;2023-09-12T01:05:22;66.07;;;32.72;;
20511;SDS011;10414;52.074;5.126;2023-09-12T01:07:49;66.85;;;33.45;;
20511;SDS011;10414;52.074;5.126;2023-09-12T01:10:17;72.97;;;34.92;;
20511;SDS011;10414;52.074;5.126;2023-09-12T01:12:44;69.00;;;34.17;;
20511;SDS011;10414;52.074;5.126;2023-09-12T01:15:11;73.32;;;34.95;;
20511;SDS011;10414;52.074;5.126;2023-09-12T01:17:39;72.35;;;34.63;;
20511;SDS011;10414;52.074;5.126;2023-09-12T01:20:08;71.40;;;35.47;;
20511;SDS011;10414;52.074;5.126;2023-09-12T01:22:52;67.20;;;33.20;;
20511;SDS011;10414;52.074;5.126;2023-09-12T01:25:33;67.50;;;33.70;;
20511;SDS011;10414;52.074;5.126;2023-09-12T01:28:10;76.65;;;36.55;;
20511;SDS011;10414;52.074;5.126;2023-09-12T01:30:39;71.80;;;36.05;;
20511;SDS011;10414;52.074;5.126;2023-09-12T01:33:08;78.13;;;34.70;;
20511;SDS011;10414;52.074;5.126;2023-09-12T01:35:36;73.18;;;35.38;;
20511;SDS011;10414;52.074;5.126;2023-09-12T01:38:03;74.40;;;36.08;;
20511;SDS011;10414;52.074;5.126;2023-09-12T01:40:31;72.43;;;35.58;;
20511;SDS011;10414;52.074;5.126;2023-09-12T01:43:01;75.90;;;36.95;;
20511;SDS011;10414;52.074;5.126;2023-09-12T01:45:32;78.40;;;36.58;;
20511;SDS011;10414;52.074;5.126;2023-09-12T01:48:01;77.03;;;37.28;;
20511;SDS011;10414;52.074;5.126;2023-09-12T01:50:30;79.85;;;37.25;;
20511;SDS011;10414;52.074;5.126;2023-09-12T01:52:57;81.53;;;38.53;;
20511;SDS011;10414;52.074;5.126;2023-09-12T01:55:25;81.97;;;38.30;;
20511;SDS011;10414;52.074;5.126;2023-09-12T01:57:53;81.25;;;36.78;;
20511;SDS011;10414;52.074;5.126;2023-09-12T02:00:21;89.50;;;39.22;;
20511;SDS011;10414;52.074;5.126;2023-09-12T02:02:49;88.65;;;39.58;;
20511;SDS011;10414;52.074;5.126;2023-09-12T02:05:16;86.88;;;39.40;;
20511;SDS011;10414;52.074;5.126;2023-09-12T02:07:45;83.05;;;38.40;;
20511;SDS011;10414;52.074;5.126;2023-09-12T02:10:13;83.45;;;36.95;;
20511;SDS011;10414;52.074;5.126;2023-09-12T02:12:40;81.32;;;37.72;;
20511;SDS011;10414;52.074;5.126;2023-09-12T02:15:07;76.13;;;37.53;;
20511;SDS011;10414;52.074;5.126;2023-09-12T02:17:35;85.68;;;38.63;;
20511;SDS011;10414;52.074;5.126;2023-09-12T02:20:05;86.18;;;37.47;;
20511;SDS011;10414;52.074;5.126;2023-09-12T02:22:33;89.70;;;38.67;;
20511;SDS011;10414;52.074;5.126;2023-09-12T02:25:00;84.60;;;38.40;;
20511;SDS011;10414;52.074;5.126;2023-09-12T02:27:28;90.78;;;39.33;;
20511;SDS011;10414;52.074;5.126;2023-09-12T02:29:55;97.82;;;41.20;;
20511;SDS011;10414;52.074;5.126;2023-09-12T02:32:22;100.75;;;42.65;;
20511;SDS011;10414;52.074;5.126;2023-09-12T02:34:49;96.75;;;43.40;;
20511;SDS011;10414;52.074;5.126;2023-09-12T02:37:19;94.32;;;39.70;;
20511;SDS011;10414;52.074;5.126;2023-09-12T02:39:46;98.35;;;41.67;;
20511;SDS011;10414;52.074;5.126;2023-09-12T02:42:13;101.15;;;42.38;;
20511;SDS011;10414;52.074;5.126;2023-09-12T02:44:40;92.53;;;41.35;;
20511;SDS011;10414;52.074;5.126;2023-09-12T02:47:07;99.07;;;42.92;;
20511;SDS011;10414;52.074;5.126;2023-09-12T02:49:34;101.70;;;43.30;;
20511;SDS011;10414;52.074;5.126;2023-09-12T02:52:01;99.88;;;43.65;;
20511;SDS011;10414;52.074;5.126;2023-09-12T02:54:29;87.68;;;38.70;;
20511;SDS011;10414;52.074;5.126;2023-09-12T02:56:56;92.00;;;38.88;;
20511;SDS011;10414;52.074;5.126;2023-09-12T02:59:23;82.20;;;36.50;;
20511;SDS011;10414;52.074;5.126;2023-09-12T03:01:50;85.13;;;39.85;;
20511;SDS011;10414;52.074;5.126;2023-09-12T03:04:17;88.18;;;39.83;;
20511;SDS011;10414;52.074;5.126;2023-09-12T03:06:44;90.32;;;40.30;;
20511;SDS011;10414;52.074;5.126;2023-09-12T03:09:10;88.63;;;40.63;;
20511;SDS011;10414;52.074;5.126;2023-09-12T03:11:39;89.35;;;39.80;;
20511;SDS011;10414;52.074;5.126;2023-09-12T03:14:05;86.78;;;39.30;;
20511;SDS011;10414;52.074;5.126;2023-09-12T03:16:32;85.78;;;38.83;;
20511;SDS011;10414;52.074;5.126;2023-09-12T03:19:00;86.32;;;37.70;;
20511;SDS011;10414;52.074;5.126;2023-09-12T03:21:28;86.32;;;39.50;;
20511;SDS011;10414;52.074;5.126;2023-09-12T03:23:55;89.97;;;40.20;;
20511;SDS011;10414;52.074;5.126;2023-09-12T03:26:21;90.15;;;40.55;;
20511;SDS011;10414;52.074;5.126;2023-09-12T03:28:50;86.57;;;38.63;;
20511;SDS011;10414;52.074;5.126;2023-09-12T03:31:17;76.53;;;36.65;;
20511;SDS011;10414;52.074;5.126;2023-09-12T03:33:44;73.90;;;35.35;;
20511;SDS011;10414;52.074;5.126;2023-09-12T03:36:14;73.20;;;34.83;;
20511;SDS011;10414;52.074;5.126;2023-09-12T03:38:42;86.05;;;38.38;;
20511;SDS011;10414;52.074;5.126;2023-09-12T03:41:09;71.82;;;36.00;;
20511;SDS011;10414;52.074;5.126;2023-09-12T03:43:36;74.43;;;37.92;;
20511;SDS011;10414;52.074;5.126;2023-09-12T03:46:04;72.22;;;35.92;;
20511;SDS011;10414;52.074;5.126;2023-09-12T03:48:31;79.82;;;37.03;;
20511;SDS011;10414;52.074;5.126;2023-09-12T03:50:59;80.53;;;39.53;;
20511;SDS011;10414;52.074;5.126;2023-09-12T03:53:26;78.82;;;39.30;;
20511;SDS011;10414;52.074;5.126;2023-09-12T03:55:53;87.22;;;39.75;;
20511;SDS011;10414;52.074;5.126;2023-09-12T03:58:20;80.15;;;37.22;;
20511;SDS011;10414;52.074;5.126;2023-09-12T04:00:47;80.43;;;40.25;;
20511;SDS011;10414;52.074;5.126;2023-09-12T04:03:15;75.22;;;38.95;;
20511;SDS011;10414;52.074;5.126;2023-09-12T04:05:42;84.47;;;39.75;;
20511;SDS011;10414;52.074;5.126;2023-09-12T04:08:09;85.65;;;41.25;;
20511;SDS011;10414;52.074;5.126;2023-09-12T04:10:36;78.32;;;37.20;;
20511;SDS011;10414;52.074;5.126;2023-09-12T04:13:03;85.13;;;40.38;;
20511;SDS011;10414;52.074;5.126;2023-09-12T04:15:30;81.03;;;37.35;;
20511;SDS011;10414;52.074;5.126;2023-09-12T04:17:57;81.63;;;39.45;;
20511;SDS011;10414;52.074;5.126;2023-09-12T04:20:25;81.45;;;38.70;;
20511;SDS011;10414;52.074;5.126;2023-09-12T04:22:52;79.32;;;37.42;;
20511;SDS011;10414;52.074;5.126;2023-09-12T04:25:19;87.75;;;40.47;;
20511;SDS011;10414;52.074;5.126;2023-09-12T04:27:46;85.68;;;38.90;;
20511;SDS011;10414;52.074;5.126;2023-09-12T04:30:13;78.78;;;36.20;;
20511;SDS011;10414;52.074;5.126;2023-09-12T04:32:39;76.32;;;36.85;;
20511;SDS011;10414;52.074;5.126;2023-09-12T04:35:06;81.18;;;36.38;;
20511;SDS011;10414;52.074;5.126;2023-09-12T04:37:35;88.60;;;38.90;;
20511;SDS011;10414;52.074;5.126;2023-09-12T04:40:02;81.93;;;38.28;;
20511;SDS011;10414;52.074;5.126;2023-09-12T04:42:31;89.22;;;39.53;;
20511;SDS011;10414;52.074;5.126;2023-09-12T04:44:58;79.13;;;37.20;;
20511;SDS011;10414;52.074;5.126;2023-09-12T04:47:25;87.00;;;38.70;;
20511;SDS011;10414;52.074;5.126;2023-09-12T04:49:52;74.82;;;35.10;;
20511;SDS011;10414;52.074;5.126;2023-09-12T04:52:19;72.65;;;34.03;;
20511;SDS011;10414;52.074;5.126;2023-09-12T04:54:48;73.50;;;34.42;;
20511;SDS011;10414;52.074;5.126;2023-09-12T04:57:15;71.40;;;33.33;;
20511;SDS011;10414;52.074;5.126;2023-09-12T04:59:41;79.07;;;35.10;;
20511;SDS011;10414;52.074;5.126;2023-09-12T05:02:09;62.45;;;30.92;;
20511;SDS011;10414;52.074;5.126;2023-09-12T05:04:36;79.60;;;36.30;;
20511;SDS011;10414;52.074;5.126;2023-09-12T05:07:03;77.47;;;35.03;;
20511;SDS011;10414;52.074;5.126;2023-09-12T05:09:30;78.88;;;35.33;;
20511;SDS011;10414;52.074;5.126;2023-09-12T05:11:58;72.75;;;35.38;;
20511;SDS011;10414;52.074;5.126;2023-09-12T05:14:25;70.95;;;32.78;;
20511;SDS011;10414;52.074;5.126;2023-09-12T05:16:52;75.30;;;35.65;;
20511;SDS011;10414;52.074;5.126;2023-09-12T05:19:19;80.53;;;36.13;;
20511;SDS011;10414;52.074;5.126;2023-09-12T05:21:46;74.85;;;33.67;;
20511;SDS011;10414;52.074;5.126;2023-09-12T05:24:12;75.55;;;34.58;;
20511;SDS011;10414;52.074;5.126;2023-09-12T05:26:39;70.75;;;33.00;;
20511;SDS011;10414;52.074;5.126;2023-09-12T05:29:08;75.25;;;32.97;;
20511;SDS011;10414;52.074;5.126;2023-09-12T05:31:34;70.22;;;31.27;;
20511;SDS011;10414;52.074;5.126;2023-09-12T05:34:01;64.70;;;32.15;;
20511;SDS011;10414;52.074;5.126;2023-09-12T05:36:28;71.95;;;31.27;;
20511;SDS011;10414;52.074;5.126;2023-09-12T05:38:55;70.45;;;33.67;;
20511;SDS011;10414;52.074;5.126;2023-09-12T05:41:22;66.65;;;32.05;;
20511;SDS011;10414;52.074;5.126;2023-09-12T05:43:49;68.22;;;30.90;;
20511;SDS011;10414;52.074;5.126;2023-09-12T05:46:17;71.38;;;31.15;;
20511;SDS011;10414;52.074;5.126;2023-09-12T05:48:45;64.63;;;29.05;;
20511;SDS011;10414;52.074;5.126;2023-09-12T05:51:11;66.28;;;29.67;;
20511;SDS011;10414;52.074;5.126;2023-09-12T05:53:38;61.90;;;28.35;;
20511;SDS011;10414;52.074;5.126;2023-09-12T05:56:05;58.65;;;26.98;;
20511;SDS011;10414;52.074;5.126;2023-09-12T05:58:32;50.85;;;25.13;;
20511;SDS011;10414;52.074;5.126;2023-09-12T06:00:59;46.95;;;24.48;;
20511;SDS011;10414;52.074;5.126;2023-09-12T06:03:27;49.70;;;24.63;;
20511;SDS011;10414;52.074;5.126;2023-09-12T06:05:54;49.85;;;24.75;;
20511;SDS011;10414;52.074;5.126;2023-09-12T06:08:21;48.95;;;23.55;;
20511;SDS011;10414;52.074;5.126;2023-09-12T06:10:49;44.65;;;24.27;;
20511;SDS011;10414;52.074;5.126;2023-09-12T06:13:18;39.17;;;21.63;;
20511;SDS011;10414;52.074;5.126;2023-09-12T06:15:45;42.95;;;22.75;;
20511;SDS011;10414;52.074;5.126;2023-09-12T06:18:12;43.25;;;21.73;;
20511;SDS011;10414;52.074;5.126;2023-09-12T06:20:41;40.13;;;21.55;;
20511;SDS011;10414;52.074;5.126;2023-09-12T06:23:08;38.28;;;21.38;;
20511;SDS011;10414;52.074;5.126;2023-09-12T06:25:35;42.38;;;22.52;;
20511;SDS011;10414;52.074;5.126;2023-09-12T06:28:02;36.08;;;21.15;;
20511;SDS011;10414;52.074;5.126;2023-09-12T06:30:29;38.95;;;21.33;;
20511;SDS011;10414;52.074;5.126;2023-09-12T06:32:56;39.47;;;22.45;;
20511;SDS011;10414;52.074;5.126;2023-09-12T06:35:23;39.08;;;21.70;;
20511;SDS011;10414;52.074;5.126;2023-09-12T06:37:51;40.63;;;21.75;;
20511;SDS011;10414;52.074;5.126;2023-09-12T06:40:21;39.25;;;21.60;;
20511;SDS011;10414;52.074;5.126;2023-09-12T06:42:47;38.75;;;21.13;;
20511;SDS011;10414;52.074;5.126;2023-09-12T06:45:14;38.35;;;21.58;;
20511;SDS011;10414;52.074;5.126;2023-09-12T06:47:41;39.22;;;22.00;;
20511;SDS011;10414;52.074;5.126;2023-09-12T06:50:08;42.83;;;22.42;;
20511;SDS011;10414;52.074;5.126;2023-09-12T06:52:36;41.03;;;22.08;;
20511;SDS011;10414;52.074;5.126;2023-09-12T06:55:04;39.30;;;22.23;;
20511;SDS011;10414;52.074;5.126;2023-09-12T06:57:32;36.10;;;20.17;;
20511;SDS011;10414;52.074;5.126;2023-09-12T06:59:59;43.92;;;21.88;;
20511;SDS011;10414;52.074;5.126;2023-09-12T07:02:26;42.55;;;21.52;;
20511;SDS011;10414;52.074;5.126;2023-09-12T07:04:54;47.97;;;21.67;;
20511;SDS011;10414;52.074;5.126;2023-09-12T07:07:21;46.83;;;22.98;;
20511;SDS011;10414;52.074;5.126;2023-09-12T07:09:48;42.25;;;22.23;;
20511;SDS011;10414;52.074;5.126;2023-09-12T07:12:16;44.88;;;22.55;;
20511;SDS011;10414;52.074;5.126;2023-09-12T07:14:44;41.63;;;22.30;;
20511;SDS011;10414;52.074;5.126;2023-09-12T07:17:11;46.42;;;23.92;;
20511;SDS011;10414;52.074;5.126;2023-09-12T07:19:38;42.85;;;22.70;;
20511;SDS011;10414;52.074;5.126;2023-09-12T07:22:05;51.05;;;25.40;;
20511;SDS011;10414;52.074;5.126;2023-09-12T07:24:32;45.30;;;23.17;;
20511;SDS011;10414;52.074;5.126;2023-09-12T07:27:04;43.53;;;22.45;;
20511;SDS011;10414;52.074;5.126;2023-09-12T07:29:32;48.35;;;23.40;;
20511;SDS011;10414;52.074;5.126;2023-09-12T07:31:59;44.97;;;24.25;;
20511;SDS011;10414;52.074;5.126;2023-09-12T07:34:25;43.15;;;22.58;;
20511;SDS011;10414;52.074;5.126;2023-09-12T07:36:52;43.03;;;23.95;;
20511;SDS011;10414;52.074;5.126;2023-09-12T07:39:19;40.83;;;22.70;;
20511;SDS011;10414;52.074;5.126;2023-09-12T07:41:46;44.90;;;24.20;;
20511;SDS011;10414;52.074;5.126;2023-09-12T07:44:14;42.38;;;22.55;;
20511;SDS011;10414;52.074;5.126;2023-09-12T07:46:43;46.03;;;23.58;;
20511;SDS011;10414;52.074;5.126;2023-09-12T07:49:10;43.55;;;24.05;;
20511;SDS011;10414;52.074;5.126;2023-09-12T07:51:37;39.65;;;22.70;;
20511;SDS011;10414;52.074;5.126;2023-09-12T07:54:03;46.42;;;23.63;;
20511;SDS011;10414;52.074;5.126;2023-09-12T07:56:31;39.60;;;21.35;;
20511;SDS011;10414;52.074;5.126;2023-09-12T07:58:57;46.80;;;25.60;;
20511;SDS011;10414;52.074;5.126;2023-09-12T08:01:24;40.67;;;24.02;;
20511;SDS011;10414;52.074;5.126;2023-09-12T08:03:53;41.00;;;23.83;;
20511;SDS011;10414;52.074;5.126;2023-09-12T08:06:20;43.17;;;24.25;;
20511;SDS011;10414;52.074;5.126;2023-09-12T08:08:49;44.80;;;25.70;;
20511;SDS011;10414;52.074;5.126;2023-09-12T08:11:16;44.90;;;25.10;;
20511;SDS011;10414;52.074;5.126;2023-09-12T08:13:43;42.50;;;24.73;;
20511;SDS011;10414;52.074;5.126;2023-09-12T08:16:12;41.33;;;24.43;;
20511;SDS011;10414;52.074;5.126;2023-09-12T08:18:39;46.00;;;25.00;;
20511;SDS011;10414;52.074;5.126;2023-09-12T08:21:07;49.97;;;26.98;;
20511;SDS011;10414;52.074;5.126;2023-09-12T08:23:34;45.08;;;25.95;;
20511;SDS011;10414;52.074;5.126;2023-09-12T08:26:01;46.15;;;26.25;;
20511;SDS011;10414;52.074;5.126;2023-09-12T08:28:28;47.08;;;26.35;;
20511;SDS011;10414;52.074;5.126;2023-09-12T08:30:57;48.30;;;26.95;;
20511;SDS011;10414;52.074;5.126;2023-09-12T08:33:24;47.15;;;26.40;;
20511;SDS011;10414;52.074;5.126;2023-09-12T08:35:51;47.20;;;27.52;;
20511;SDS011;10414;52.074;5.126;2023-09-12T08:38:19;49.30;;;27.95;;
20511;SDS011;10414;52.074;5.126;2023-09-12T08:40:49;47.20;;;27.88;;
20511;SDS011;10414;52.074;5.126;2023-09-12T08:43:16;51.38;;;28.70;;
20511;SDS011;10414;52.074;5.126;2023-09-12T08:45:45;49.83;;;28.90;;
20511;SDS011;10414;52.074;5.126;2023-09-12T08:48:12;52.38;;;30.63;;
20511;SDS011;10414;52.074;5.126;2023-09-12T08:50:41;58.63;;;31.90;;
20511;SDS011;10414;52.074;5.126;2023-09-12T08:53:09;46.03;;;26.70;;
20511;SDS011;10414;52.074;5.126;2023-09-12T08:55:37;58.95;;;31.17;;
20511;SDS011;10414;52.074;5.126;2023-09-12T08:58:05;53.43;;;31.17;;
20511;SDS011;10414;52.074;5.126;2023-09-12T09:00:35;50.70;;;28.58;;
20511;SDS011;10414;52.074;5.126;2023-09-12T09:03:06;51.47;;;28.85;;
20511;SDS011;10414;52.074;5.126;2023-09-12T09:05:33;55.22;;;30.05;;
20511;SDS011;10414;52.074;5.126;2023-09-12T09:08:02;51.58;;;27.88;;
20511;SDS011;10414;52.074;5.126;2023-09-12T09:10:30;43.50;;;24.40;;
20511;SDS011;10414;52.074;5.126;2023-09-12T09:12:58;50.10;;;28.02;;
20511;SDS011;10414;52.074;5.126;2023-09-12T09:15:31;52.28;;;28.40;;
20511;SDS011;10414;52.074;5.126;2023-09-12T09:17:58;47.53;;;27.45;;
20511;SDS011;10414;52.074;5.126;2023-09-12T09:20:31;43.67;;;26.40;;
20511;SDS011;10414;52.074;5.126;2023-09-12T09:23:00;45.97;;;27.10;;
20511;SDS011;10414;52.074;5.126;2023-09-12T09:25:30;43.25;;;25.80;;
20511;SDS011;10414;52.074;5.126;2023-09-12T09:27:58;44.88;;;25.77;;
20511;SDS011;10414;52.074;5.126;2023-09-12T09:30:39;45.28;;;26.95;;
20511;SDS011;10414;52.074;5.126;2023-09-12T09:33:07;46.22;;;25.50;;
20511;SDS011;10414;52.074;5.126;2023-09-12T09:35:34;43.78;;;26.27;;
20511;SDS011;10414;52.074;5.126;2023-09-12T09:38:02;47.13;;;27.02;;
20511;SDS011;10414;52.074;5.126;2023-09-12T09:40:31;45.40;;;27.13;;
20511;SDS011;10414;52.074;5.126;2023-09-12T09:43:01;46.38;;;27.25;;
20511;SDS011;10414;52.074;5.126;2023-09-12T09:45:29;52.37;;;29.37;;
20511;SDS011;10414;52.074;5.126;2023-09-12T09:47:57;37.38;;;24.52;;
20511;SDS011;10414;52.074;5.126;2023-09-12T09:50:25;47.95;;;27.92;;
20511;SDS011;10414;52.074;5.126;2023-09-12T09:52:54;51.10;;;28.90;;
20511;SDS011;10414;52.074;5.126;2023-09-12T09:55:23;48.85;;;29.45;;
20511;SDS011;10414;52.074;5.126;2023-09-12T09:57:51;47.72;;;28.38;;
20511;SDS011;10414;52.074;5.126;2023-09-12T10:00:20;45.70;;;27.02;;
20511;SDS011;10414;52.074;5.126;2023-09-12T10:02:49;45.10;;;26.05;;
20511;SDS011;10414;52.074;5.126;2023-09-12T10:05:17;42.92;;;26.00;;
20511;SDS011;10414;52.074;5.126;2023-09-12T10:07:46;45.97;;;26.25;;
20511;SDS011;10414;52.074;5.126;2023-09-12T10:12:43;43.60;;;23.92;;
20511;SDS011;10414;52.074;5.126;2023-09-12T10:15:14;42.97;;;24.58;;
20511;SDS011;10414;52.074;5.126;2023-09-12T10:17:46;39.88;;;23.38;;
20511;SDS011;10414;52.074;5.126;2023-09-12T10:20:19;44.00;;;25.27;;
20511;SDS011;10414;52.074;5.126;2023-09-12T10:22:52;44.85;;;25.88;;
20511;SDS011;10414;52.074;5.126;2023-09-12T10:25:28;44.20;;;24.70;;
20511;SDS011;10414;52.074;5.126;2023-09-12T10:27:56;43.22;;;24.73;;
20511;SDS011;10414;52.074;5.126;2023-09-12T10:30:26;39.08;;;24.20;;
20511;SDS011;10414;52.074;5.126;2023-09-12T10:32:56;35.25;;;22.25;;
20511;SDS011;10414;52.074;5.126;2023-09-12T10:35:24;33.67;;;21.47;;
20511;SDS011;10414;52.074;5.126;2023-09-12T10:37:51;39.42;;;21.58;;
20511;SDS011;10414;52.074;5.126;2023-09-12T10:40:20;33.17;;;21.63;;
20511;SDS011;10414;52.074;5.126;2023-09-12T10:42:47;34.00;;;21.48;;
20511;SDS011;10414;52.074;5.126;2023-09-12T10:45:15;32.53;;;21.83;;
20511;SDS011;10414;52.074;5.126;2023-09-12T10:47:43;32.33;;;22.25;;
20511;SDS011;10414;52.074;5.126;2023-09-12T10:50:11;31.67;;;21.75;;
20511;SDS011;10414;52.074;5.126;2023-09-12T10:52:40;33.72;;;23.25;;
20511;SDS011;10414;52.074;5.126;2023-09-12T10:55:15;35.50;;;21.77;;
20511;SDS011;10414;52.074;5.126;2023-09-12T11:00:32;27.63;;;18.70;;
20511;SDS011;10414;52.074;5.126;2023-09-12T11:02:59;32.22;;;19.77;;
20511;SDS011;10414;52.074;5.126;2023-09-12T11:05:53;31.45;;;21.42;;
20511;SDS011;10414;52.074;5.126;2023-09-12T11:08:22;29.40;;;19.38;;
20511;SDS011;10414;52.074;5.126;2023-09-12T11:11:16;31.00;;;19.38;;
20511;SDS011;10414;52.074;5.126;2023-09-12T11:13:46;29.17;;;21.42;;
20511;SDS011;10414;52.074;5.126;2023-09-12T11:16:31;28.83;;;19.33;;
20511;SDS011;10414;52.074;5.126;2023-09-12T11:19:18;27.95;;;19.25;;
20511;SDS011;10414;52.074;5.126;2023-09-12T11:21:47;26.98;;;17.85;;
20511;SDS011;10414;52.074;5.126;2023-09-12T11:24:15;26.85;;;18.58;;
20511;SDS011;10414;52.074;5.126;2023-09-12T11:26:56;25.10;;;17.02;;
20511;SDS011;10414;52.074;5.126;2023-09-12T11:29:27;25.80;;;17.90;;
20511;SDS011;10414;52.074;5.126;2023-09-12T11:31:58;26.95;;;20.10;;
20511;SDS011;10414;52.074;5.126;2023-09-12T11:34:28;26.67;;;18.50;;
20511;SDS011;10414;52.074;5.126;2023-09-12T11:36:58;25.73;;;18.20;;
20511;SDS011;10414;52.074;5.126;2023-09-12T11:39:28;29.40;;;17.98;;
20511;SDS011;10414;52.074;5.126;2023-09-12T11:41:59;27.92;;;17.77;;
20511;SDS011;10414;52.074;5.126;2023-09-12T11:44:27;22.80;;;15.68;;
20511;SDS011;10414;52.074;5.126;2023-09-12T11:46:56;26.90;;;18.57;;
20511;SDS011;10414;52.074;5.126;2023-09-12T11:49:28;27.25;;;17.55;;
20511;SDS011;10414;52.074;5.126;2023-09-12T11:52:02;27.65;;;18.67;;
20511;SDS011;10414;52.074;5.126;2023-09-12T11:54:34;27.45;;;18.67;;
20511;SDS011;10414;52.074;5.126;2023-09-12T11:57:03;24.42;;;16.48;;
20511;SDS011;10414;52.074;5.126;2023-09-12T11:59:31;29.15;;;18.85;;
20511;SDS011;10414;52.074;5.126;2023-09-12T12:01:58;28.60;;;18.05;;
20511;SDS011;10414;52.074;5.126;2023-09-12T12:04:27;25.08;;;17.10;;
20511;SDS011;10414;52.074;5.126;2023-09-12T12:06:54;26.80;;;16.77;;
20511;SDS011;10414;52.074;5.126;2023-09-12T12:09:25;27.52;;;18.52;;
20511;SDS011;10414;52.074;5.126;2023-09-12T12:11:53;23.58;;;16.95;;
20511;SDS011;10414;52.074;5.126;2023-09-12T12:14:20;29.23;;;18.08;;
20511;SDS011;10414;52.074;5.126;2023-09-12T12:16:47;24.13;;;15.73;;
20511;SDS011;10414;52.074;5.126;2023-09-12T12:19:15;25.05;;;17.50;;
20511;SDS011;10414;52.074;5.126;2023-09-12T12:21:42;25.80;;;17.17;;
20511;SDS011;10414;52.074;5.126;2023-09-12T12:24:10;24.42;;;16.85;;
20511;SDS011;10414;52.074;5.126;2023-09-12T12:26:41;26.13;;;17.67;;
20511;SDS011;10414;52.074;5.126;2023-09-12T12:29:08;24.83;;;16.60;;
20511;SDS011;10414;52.074;5.126;2023-09-12T12:31:36;22.27;;;14.63;;
20511;SDS011;10414;52.074;5.126;2023-09-12T12:34:04;25.50;;;16.92;;
20511;SDS011;10414;52.074;5.126;2023-09-12T12:36:31;27.90;;;16.33;;
20511;SDS011;10414;52.074;5.126;2023-09-12T12:38:58;24.27;;;14.90;;
20511;SDS011;10414;52.074;5.126;2023-09-12T12:41:26;21.45;;;14.00;;
20511;SDS011;10414;52.074;5.126;2023-09-12T12:43:57;19.27;;;12.80;;
20511;SDS011;10414;52.074;5.126;2023-09-12T12:46:29;21.23;;;12.52;;
20511;SDS011;10414;52.074;5.126;2023-09-12T12:48:59;18.83;;;12.50;;
20511;SDS011;10414;52.074;5.126;2023-09-12T12:51:26;22.02;;;13.88;;
20511;SDS011;10414;52.074;5.126;2023-09-12T12:54:02;21.25;;;14.93;;
20511;SDS011;10414;52.074;5.126;2023-09-12T12:56:30;24.75;;;16.38;;
20511;SDS011;10414;52.074;5.126;2023-09-12T12:59:00;26.10;;;16.17;;
20511;SDS011;10414;52.074;5.126;2023-09-12T13:01:28;25.73;;;17.08;;
20511;SDS011;10414;52.074;5.126;2023-09-12T13:04:04;25.60;;;16.42;;
20511;SDS011;10414;52.074;5.126;2023-09-12T13:06:31;24.50;;;15.68;;
20511;SDS011;10414;52.074;5.126;2023-09-12T13:09:00;24.33;;;15.27;;
20511;SDS011;10414;52.074;5.126;2023-09-12T13:11:30;22.23;;;14.90;;
20511;SDS011;10414;52.074;5.126;2023-09-12T13:13:58;21.80;;;13.30;;
20511;SDS011;10414;52.074;5.126;2023-09-12T13:16:26;24.88;;;14.40;;
20511;SDS011;10414;52.074;5.126;2023-09-12T13:18:54;21.38;;;13.05;;
20511;SDS011;10414;52.074;5.126;2023-09-12T13:21:21;23.48;;;13.20;;
20511;SDS011;10414;52.074;5.126;2023-09-12T13:23:47;21.60;;;13.18;;
20511;SDS011;10414;52.074;5.126;2023-09-12T13:26:14;25.08;;;14.00;;
20511;SDS011;10414;52.074;5.126;2023-09-12T13:28:43;21.13;;;13.97;;
20511;SDS011;10414;52.074;5.126;2023-09-12T13:31:13;20.48;;;13.23;;
20511;SDS011;10414;52.074;5.126;2023-09-12T13:33:40;19.15;;;11.50;;
20511;SDS011;10414;52.074;5.126;2023-09-12T13:36:07;18.50;;;9.40;;
20511;SDS011;10414;52.074;5.126;2023-09-12T13:38:34;11.65;;;7.40;;
20511;SDS011;10414;52.074;5.126;2023-09-12T13:41:03;12.77;;;7.93;;
20511;SDS011;10414;52.074;5.126;2023-09-12T13:43:30;13.80;;;8.20;;
20511;SDS011;10414;52.074;5.126;2023-09-12T13:45:56;16.20;;;9.73;;
20511;SDS011;10414;52.074;5.126;2023-09-12T13:48:27;16.77;;;10.23;;
20511;SDS011;10414;52.074;5.126;2023-09-12T13:50:56;18.52;;;12.27;;
20511;SDS011;10414;52.074;5.126;2023-09-12T13:53:23;18.55;;;11.57;;
20511;SDS011;10414;52.074;5.126;2023-09-12T13:55:49;15.95;;;10.30;;
20511;SDS011;10414;52.074;5.126;2023-09-12T13:58:16;17.23;;;9.50;;
20511;SDS011;10414;52.074;5.126;2023-09-12T14:00:45;21.30;;;12.90;;
20511;SDS011;10414;52.074;5.126;2023-09-12T14:03:12;21.85;;;13.90;;
20511;SDS011;10414;52.074;5.126;2023-09-12T14:05:40;25.52;;;14.60;;
20511;SDS011;10414;52.074;5.126;2023-09-12T14:08:07;23.00;;;13.25;;
20511;SDS011;10414;52.074;5.126;2023-09-12T14:10:34;23.70;;;13.93;;
20511;SDS011;10414;52.074;5.126;2023-09-12T14:13:03;20.85;;;12.50;;
20511;SDS011;10414;52.074;5.126;2023-09-12T14:15:30;21.63;;;12.70;;
20511;SDS011;10414;52.074;5.126;2023-09-12T14:17:57;17.23;;;10.68;;
20511;SDS011;10414;52.074;5.126;2023-09-12T14:20:24;14.95;;;9.13;;
20511;SDS011;10414;52.074;5.126;2023-09-12T14:22:52;14.25;;;8.00;;
20511;SDS011;10414;52.074;5.126;2023-09-12T14:25:19;15.35;;;7.88;;
20511;SDS011;10414;52.074;5.126;2023-09-12T14:27:46;12.35;;;8.13;;
20511;SDS011;10414;52.074;5.126;2023-09-12T14:30:13;15.40;;;9.45;;
20511;SDS011;10414;52.074;5.126;2023-09-12T14:32:42;14.13;;;8.55;;